Minnetonka Mills, Minnesota
Current Conditions -  °F | °C
As of 6:53 PM on Saturday 22 Nov 2014 (Local Time) from KFCM Reporting Station
Haze Haze  
Wind Chill: 28°   Ceiling: 300
Heat Index: 36°   Visibility: 2mi
Dew Point: 35°   Wind: 12mph
Humidity: 97%   Direction: 150°SSE
Pressure: 29.59"   Gusts: NA
Location:  44.9144°N, 93.4174°W
Report Text: KFCM 230053Z 15010KT 2SM BR OVC003 02/02 A2959 RMK AO2 SLP028 T00220017
Loading
Personal Weather Stations






























Interactive Weather Map New forecast layout! Learn more

10-Day Weather Forecast

Advertisements
Track Severe Weather on mobile